sensor_id;sensor_type;location;lat;lon;timestamp;temperature;humidity
44607;DHT22;30315;46.072;14.474;2023-12-20T00:02:05;2.90;84.20
44607;DHT22;30315;46.072;14.474;2023-12-20T00:04:58;2.90;84.30
44607;DHT22;30315;46.072;14.474;2023-12-20T00:07:26;3.00;84.30
44607;DHT22;30315;46.072;14.474;2023-12-20T00:09:55;2.90;84.20
44607;DHT22;30315;46.072;14.474;2023-12-20T00:12:24;3.00;84.20
44607;DHT22;30315;46.072;14.474;2023-12-20T00:14:56;3.00;84.20
44607;DHT22;30315;46.072;14.474;2023-12-20T00:20:25;3.00;84.00
44607;DHT22;30315;46.072;14.474;2023-12-20T00:26:11;3.00;83.10
44607;DHT22;30315;46.072;14.474;2023-12-20T00:29:14;2.90;82.80
44607;DHT22;30315;46.072;14.474;2023-12-20T00:31:44;2.80;82.60
44607;DHT22;30315;46.072;14.474;2023-12-20T00:34:15;2.80;83.00
44607;DHT22;30315;46.072;14.474;2023-12-20T00:36:44;2.90;83.50
44607;DHT22;30315;46.072;14.474;2023-12-20T00:39:13;2.80;83.30
44607;DHT22;30315;46.072;14.474;2023-12-20T00:41:43;2.80;82.50
44607;DHT22;30315;46.072;14.474;2023-12-20T00:44:13;2.80;82.50
44607;DHT22;30315;46.072;14.474;2023-12-20T00:46:40;2.80;82.70
44607;DHT22;30315;46.072;14.474;2023-12-20T00:49:08;2.80;82.70
44607;DHT22;30315;46.072;14.474;2023-12-20T00:51:38;2.70;82.70
44607;DHT22;30315;46.072;14.474;2023-12-20T00:54:16;2.80;82.90
44607;DHT22;30315;46.072;14.474;2023-12-20T00:56:45;2.80;83.00
44607;DHT22;30315;46.072;14.474;2023-12-20T00:59:13;2.80;82.80
44607;DHT22;30315;46.072;14.474;2023-12-20T01:01:42;2.80;82.50
44607;DHT22;30315;46.072;14.474;2023-12-20T01:04:11;2.80;82.60
44607;DHT22;30315;46.072;14.474;2023-12-20T01:06:39;2.70;82.70
44607;DHT22;30315;46.072;14.474;2023-12-20T01:09:09;2.80;83.00
44607;DHT22;30315;46.072;14.474;2023-12-20T01:11:43;2.80;83.20
44607;DHT22;30315;46.072;14.474;2023-12-20T01:14:10;2.80;83.00
44607;DHT22;30315;46.072;14.474;2023-12-20T01:16:55;2.70;83.10
44607;DHT22;30315;46.072;14.474;2023-12-20T01:19:24;2.70;83.20
44607;DHT22;30315;46.072;14.474;2023-12-20T01:21:58;2.70;83.30
44607;DHT22;30315;46.072;14.474;2023-12-20T01:24:27;2.70;83.40
44607;DHT22;30315;46.072;14.474;2023-12-20T01:26:55;2.80;83.40
44607;DHT22;30315;46.072;14.474;2023-12-20T01:29:24;2.70;83.20
44607;DHT22;30315;46.072;14.474;2023-12-20T01:31:52;2.70;83.00
44607;DHT22;30315;46.072;14.474;2023-12-20T01:34:20;2.70;83.10
44607;DHT22;30315;46.072;14.474;2023-12-20T01:36:50;2.80;83.00
44607;DHT22;30315;46.072;14.474;2023-12-20T01:39:19;2.70;82.80
44607;DHT22;30315;46.072;14.474;2023-12-20T01:41:56;2.70;82.90
44607;DHT22;30315;46.072;14.474;2023-12-20T01:44:30;2.70;83.10
44607;DHT22;30315;46.072;14.474;2023-12-20T01:46:58;2.70;83.00
44607;DHT22;30315;46.072;14.474;2023-12-20T01:49:29;2.70;82.80
44607;DHT22;30315;46.072;14.474;2023-12-20T01:51:58;2.70;82.80
44607;DHT22;30315;46.072;14.474;2023-12-20T01:54:28;2.70;82.60
44607;DHT22;30315;46.072;14.474;2023-12-20T01:56:57;2.60;82.50
44607;DHT22;30315;46.072;14.474;2023-12-20T01:59:27;2.70;82.70
44607;DHT22;30315;46.072;14.474;2023-12-20T02:01:56;2.60;82.50
44607;DHT22;30315;46.072;14.474;2023-12-20T02:04:25;2.60;82.30
44607;DHT22;30315;46.072;14.474;2023-12-20T02:06:56;2.60;82.60
44607;DHT22;30315;46.072;14.474;2023-12-20T02:09:30;2.60;82.80
44607;DHT22;30315;46.072;14.474;2023-12-20T02:12:05;2.60;82.60
44607;DHT22;30315;46.072;14.474;2023-12-20T02:14:32;2.60;82.40
44607;DHT22;30315;46.072;14.474;2023-12-20T02:17:01;2.60;82.10
44607;DHT22;30315;46.072;14.474;2023-12-20T02:19:31;2.60;82.10
44607;DHT22;30315;46.072;14.474;2023-12-20T02:22:25;2.50;82.10
44607;DHT22;30315;46.072;14.474;2023-12-20T02:28:48;2.50;82.40
44607;DHT22;30315;46.072;14.474;2023-12-20T02:31:21;2.50;82.30
44607;DHT22;30315;46.072;14.474;2023-12-20T02:33:49;2.40;82.30
44607;DHT22;30315;46.072;14.474;2023-12-20T02:36:34;2.40;82.20
44607;DHT22;30315;46.072;14.474;2023-12-20T02:39:03;2.50;82.10
44607;DHT22;30315;46.072;14.474;2023-12-20T03:13:57;2.30;81.60
44607;DHT22;30315;46.072;14.474;2023-12-20T03:20:47;2.10;81.70
44607;DHT22;30315;46.072;14.474;2023-12-20T03:25:29;2.10;82.00
44607;DHT22;30315;46.072;14.474;2023-12-20T03:27:56;2.10;82.30
44607;DHT22;30315;46.072;14.474;2023-12-20T03:30:24;2.20;82.10
44607;DHT22;30315;46.072;14.474;2023-12-20T03:33:06;2.20;82.00
44607;DHT22;30315;46.072;14.474;2023-12-20T03:53:31;2.10;82.10
44607;DHT22;30315;46.072;14.474;2023-12-20T03:59:37;2.20;82.50
44607;DHT22;30315;46.072;14.474;2023-12-20T04:02:06;2.20;82.60
44607;DHT22;30315;46.072;14.474;2023-12-20T04:04:35;2.20;82.70
44607;DHT22;30315;46.072;14.474;2023-12-20T04:07:11;2.20;82.70
44607;DHT22;30315;46.072;14.474;2023-12-20T04:09:42;2.20;82.80
44607;DHT22;30315;46.072;14.474;2023-12-20T04:12:13;2.20;82.90
44607;DHT22;30315;46.072;14.474;2023-12-20T04:14:48;2.20;82.90
44607;DHT22;30315;46.072;14.474;2023-12-20T04:17:17;2.30;83.00
44607;DHT22;30315;46.072;14.474;2023-12-20T04:19:46;2.30;82.70
44607;DHT22;30315;46.072;14.474;2023-12-20T04:22:17;2.30;82.60
44607;DHT22;30315;46.072;14.474;2023-12-20T04:24:51;2.30;82.70
44607;DHT22;30315;46.072;14.474;2023-12-20T04:27:51;2.30;82.70
44607;DHT22;30315;46.072;14.474;2023-12-20T04:45:00;2.20;82.40
44607;DHT22;30315;46.072;14.474;2023-12-20T04:47:26;2.20;82.70
44607;DHT22;30315;46.072;14.474;2023-12-20T04:49:52;2.20;82.70
44607;DHT22;30315;46.072;14.474;2023-12-20T05:04:43;2.20;82.70
44607;DHT22;30315;46.072;14.474;2023-12-20T05:07:11;2.20;82.60
44607;DHT22;30315;46.072;14.474;2023-12-20T06:12:08;2.00;81.90
44607;DHT22;30315;46.072;14.474;2023-12-20T06:14:38;2.10;82.20
44607;DHT22;30315;46.072;14.474;2023-12-20T06:17:25;2.00;81.90
44607;DHT22;30315;46.072;14.474;2023-12-20T06:20:01;2.00;81.90
44607;DHT22;30315;46.072;14.474;2023-12-20T06:31:41;2.00;82.30
44607;DHT22;30315;46.072;14.474;2023-12-20T06:34:08;2.00;82.30
44607;DHT22;30315;46.072;14.474;2023-12-20T06:36:37;2.00;82.50
44607;DHT22;30315;46.072;14.474;2023-12-20T06:39:06;2.00;82.50
44607;DHT22;30315;46.072;14.474;2023-12-20T06:41:37;2.00;82.70
44607;DHT22;30315;46.072;14.474;2023-12-20T06:48:11;2.20;83.20
44607;DHT22;30315;46.072;14.474;2023-12-20T07:05:46;2.10;82.20
44607;DHT22;30315;46.072;14.474;2023-12-20T07:29:10;2.10;82.10
44607;DHT22;30315;46.072;14.474;2023-12-20T07:36:52;2.20;82.70
44607;DHT22;30315;46.072;14.474;2023-12-20T09:40:19;3.50;82.00
44607;DHT22;30315;46.072;14.474;2023-12-20T09:44:16;3.50;82.20
44607;DHT22;30315;46.072;14.474;2023-12-20T09:52:48;3.60;82.30
44607;DHT22;30315;46.072;14.474;2023-12-20T10:13:43;3.60;82.70
44607;DHT22;30315;46.072;14.474;2023-12-20T10:16:26;4.20;83.60
44607;DHT22;30315;46.072;14.474;2023-12-20T12:32:02;6.80;81.80
44607;DHT22;30315;46.072;14.474;2023-12-20T12:34:35;6.70;81.90
44607;DHT22;30315;46.072;14.474;2023-12-20T12:37:18;6.70;82.10
44607;DHT22;30315;46.072;14.474;2023-12-20T12:40:03;6.90;82.50
44607;DHT22;30315;46.072;14.474;2023-12-20T12:43:09;6.70;82.20
44607;DHT22;30315;46.072;14.474;2023-12-20T12:46:44;6.70;82.40
44607;DHT22;30315;46.072;14.474;2023-12-20T12:49:32;6.70;82.60
44607;DHT22;30315;46.072;14.474;2023-12-20T12:52:40;6.80;82.80
44607;DHT22;30315;46.072;14.474;2023-12-20T12:59:39;6.80;83.10
44607;DHT22;30315;46.072;14.474;2023-12-20T13:06:22;6.80;83.20
44607;DHT22;30315;46.072;14.474;2023-12-20T13:09:39;6.80;83.40
44607;DHT22;30315;46.072;14.474;2023-12-20T13:12:44;6.90;83.60
44607;DHT22;30315;46.072;14.474;2023-12-20T13:15:12;6.80;83.60
44607;DHT22;30315;46.072;14.474;2023-12-20T13:18:11;6.80;83.60
44607;DHT22;30315;46.072;14.474;2023-12-20T13:21:14;6.90;83.80
44607;DHT22;30315;46.072;14.474;2023-12-20T13:24:07;7.20;84.00
44607;DHT22;30315;46.072;14.474;2023-12-20T13:27:03;6.90;83.50
44607;DHT22;30315;46.072;14.474;2023-12-20T13:29:38;6.70;83.10
44607;DHT22;30315;46.072;14.474;2023-12-20T13:32:08;6.60;82.80
44607;DHT22;30315;46.072;14.474;2023-12-20T13:34:45;6.90;83.00
44607;DHT22;30315;46.072;14.474;2023-12-20T13:37:35;6.90;83.00
44607;DHT22;30315;46.072;14.474;2023-12-20T13:40:12;7.00;83.10
44607;DHT22;30315;46.072;14.474;2023-12-20T13:46:32;7.00;83.10
44607;DHT22;30315;46.072;14.474;2023-12-20T13:49:20;7.00;83.20
44607;DHT22;30315;46.072;14.474;2023-12-20T13:51:56;7.00;83.30
44607;DHT22;30315;46.072;14.474;2023-12-20T13:55:16;6.90;83.20
44607;DHT22;30315;46.072;14.474;2023-12-20T14:02:28;7.00;83.20
44607;DHT22;30315;46.072;14.474;2023-12-20T14:05:19;7.00;83.40
44607;DHT22;30315;46.072;14.474;2023-12-20T14:07:58;7.00;83.40
44607;DHT22;30315;46.072;14.474;2023-12-20T14:10:29;7.40;83.70
44607;DHT22;30315;46.072;14.474;2023-12-20T14:13:20;7.00;83.40
44607;DHT22;30315;46.072;14.474;2023-12-20T14:15:48;6.90;83.30
44607;DHT22;30315;46.072;14.474;2023-12-20T14:18:20;7.00;83.30
44607;DHT22;30315;46.072;14.474;2023-12-20T14:21:08;6.90;83.20
44607;DHT22;30315;46.072;14.474;2023-12-20T14:46:55;6.90;83.20
44607;DHT22;30315;46.072;14.474;2023-12-20T14:50:08;6.80;83.60
44607;DHT22;30315;46.072;14.474;2023-12-20T14:53:23;6.70;83.60
44607;DHT22;30315;46.072;14.474;2023-12-20T15:00:14;6.70;83.60
44607;DHT22;30315;46.072;14.474;2023-12-20T15:06:41;6.70;83.80
